Bei Facebook empfehlenBei Twitter postenGoogle plusPinterest

Das Wetter im Erzgebirge am 30.06.2016

Wetter und Klima am 30.06.2016 Holzhau im Erzgebirge (630m ü.NN)
Letzte gemessene Temperatur und Uhrzeit der Messung23:45:00 Uhr12.90 °C
Temperatur (Maximum / Höchstwert) und Uhrzeit der Messung11:15:00 Uhr24.30 °C
Temperatur (Minimum / Tiefstwert) und Uhrzeit der Messung03:15:009.80 °C
Errechneter Absolutwert der Temperaturschwankungen zwischen Tmin und Tmax des Tages14.50 K
Errechnete Tagesmitteltemperatur16.89896 °C
Gesamt - Niederschlag des Tages (in flüssiger Form)2.07 Liter / m²
Luftdruck (Maximum / Höchstwert) und Zeitpunkt der Messung23:30:00 Uhr1013.90 hPa
Luftdruck (Minimum / Tiefstwert) und Zeitpunkt der Messung05:00:00 Uhr1011.30 hPa
Errechneter Absolutwert der Luftdruckschwankungen des Tages2.60 hPa
Höchste gemessene Windgeschwindigkeit und Uhrzeit der Messung23:45:00 Uhr0.00 km/h
Errechnete Windhäufigkeit in Relation zu den Messwerten des Tages0.00000 %
Niedrigste Windkühle (Windchill) und Zeitpunkt der Messung03:15:00 Uhr9.80 °C
Taupunkt (Maximum / Höchstwert) und Uhrzeit der Messung10:30:00 Uhr18.60 °C
Taupunkt (Minimum / Tiefstwert) und Uhrzeit der Messung03:15:008.10 °C
Anzahl der automatisch eingelesenen Messwerte 96

Detaillierte Wetter- und Klima- Messwerte für den 30.06.2016 in Holzhau im Erzgebirge (630m ü.NN)
ZeitTemperaturLuftdruckRel. LuftfeuchteWindWindrichtungWindchillTaupunktNiederschlag l/m²
23:45:0012.90 °C1013.70 hPa89.00 %11.10 °C2.07
23:30:0013.10 °C1013.90 hPa88.00 %11.20 °C2.07
23:15:0013.20 °C1013.60 hPa88.00 %11.30 °C2.07
23:00:0013.50 °C1013.50 hPa87.00 %11.40 °C2.07
22:45:0013.80 °C1013.60 hPa86.00 %11.50 °C2.07
22:30:0014.10 °C1013.60 hPa86.00 %11.80 °C2.07
22:15:0014.40 °C1013.80 hPa85.00 %11.90 °C2.07
22:00:0014.90 °C1013.60 hPa83.00 %12.00 °C2.07
21:45:0015.20 °C1013.70 hPa81.00 %12.00 °C2.07
21:30:0015.90 °C1013.50 hPa80.00 %12.50 °C2.07
21:15:0016.80 °C1013.10 hPa78.00 %12.90 °C2.07
21:00:0017.60 °C1013.00 hPa76.00 %13.30 °C2.07
20:45:0018.70 °C1013.10 hPa74.00 %14.00 °C2.07
20:30:0019.40 °C1013.00 hPa71.00 %14.00 °C2.07
20:15:0019.90 °C1013.00 hPa70.00 %14.30 °C2.07
20:00:0020.80 °C1012.80 hPa68.00 %14.70 °C2.07
19:45:0021.90 °C1012.80 hPa67.00 %15.50 °C2.07
19:30:0022.20 °C1012.60 hPa68.00 %16.00 °C2.07
19:15:0021.60 °C1012.60 hPa71.00 %16.10 °C2.07
19:00:0021.30 °C1012.40 hPa72.00 %16.00 °C2.07
18:45:0021.30 °C1012.50 hPa72.00 %16.00 °C2.07
18:30:0021.40 °C1012.60 hPa70.00 %15.70 °C2.07
18:15:0022.10 °C1012.50 hPa66.00 %15.50 °C2.07
18:00:0023.40 °C1012.20 hPa64.00 %16.20 °C2.07
17:45:0023.90 °C1012.30 hPa66.00 %17.20 °C2.07
17:30:0023.30 °C1012.40 hPa67.00 %16.80 °C2.07
17:15:0022.50 °C1012.40 hPa69.00 %16.50 °C2.07
17:00:0023.10 °C1012.20 hPa70.00 %17.30 °C2.07
16:45:0022.20 °C1012.60 hPa71.00 %16.70 °C2.07
16:30:0021.80 °C1012.50 hPa72.00 %16.50 °C2.07
16:15:0021.90 °C1012.70 hPa69.00 %16.00 °C2.07
16:00:0022.80 °C1013.10 hPa70.00 %17.00 °C2.07
15:45:0022.50 °C1012.90 hPa70.00 %16.80 °C2.07
15:30:0022.40 °C1013.00 hPa71.00 %16.90 °C2.07
15:15:0021.80 °C1012.60 hPa75.00 %17.20 °C2.07
15:00:0020.50 °C1012.70 hPa80.00 %16.90 °C2.07
14:45:0018.90 °C1012.90 hPa83.00 %15.90 °C2.07
14:30:0018.10 °C1012.90 hPa81.00 %14.80 °C2.07
14:15:0017.60 °C1013.10 hPa78.00 %13.70 °C2.07
14:00:0018.20 °C1013.00 hPa73.00 %13.30 °C2.07
13:45:0020.10 °C1012.90 hPa66.00 %13.60 °C1.55
13:30:0021.50 °C1013.00 hPa63.00 %14.20 °C1.55
13:15:0021.70 °C1013.00 hPa63.00 %14.40 °C1.55
13:00:0021.40 °C1012.90 hPa64.00 %14.30 °C1.55
12:45:0021.30 °C1012.90 hPa63.00 %14.00 °C1.55
12:30:0022.10 °C1012.60 hPa62.00 %14.50 °C1.55
12:15:0022.20 °C1012.60 hPa62.00 %14.60 °C1.55
12:00:0022.90 °C1012.40 hPa61.00 %15.00 °C1.55
11:45:0023.10 °C1012.30 hPa62.00 %15.40 °C1.55
11:30:0022.90 °C1012.30 hPa62.00 %15.20 °C1.55
11:15:0024.30 °C1012.30 hPa64.00 %17.10 °C1.55
11:00:0023.30 °C1012.20 hPa71.00 %17.70 °C1.55
10:45:0022.40 °C1012.40 hPa76.00 %18.00 °C1.55
10:30:0021.60 °C1012.20 hPa83.00 %18.60 °C1.55
10:15:0019.90 °C1012.30 hPa88.00 %17.90 °C1.55
10:00:0018.90 °C1012.20 hPa90.00 %17.20 °C1.55
09:45:0017.90 °C1012.10 hPa91.00 %16.40 °C1.55
09:30:0016.90 °C1012.20 hPa91.00 %15.40 °C1.55
09:15:0016.00 °C1011.90 hPa91.00 %14.50 °C1.55
09:00:0015.30 °C1012.00 hPa90.00 %13.70 °C1.55
08:45:0015.60 °C1012.10 hPa90.00 %14.00 °C1.03
08:30:0015.30 °C1011.50 hPa89.00 %13.50 °C1.03
08:15:0014.90 °C1011.60 hPa88.00 %12.90 °C1.03
08:00:0015.50 °C1011.70 hPa86.00 %13.20 °C1.03
07:45:0016.80 °C1011.80 hPa85.00 %14.30 °C0.52
07:30:0017.40 °C1011.40 hPa88.00 %15.40 °C 
07:15:0016.10 °C1011.50 hPa90.00 %14.50 °C 
07:00:0014.10 °C1011.40 hPa91.00 %12.70 °C 
06:45:0013.50 °C1011.50 hPa91.00 %12.10 °C 
06:30:0013.00 °C1011.70 hPa91.00 %11.60 °C 
06:15:0012.70 °C1011.50 hPa91.00 %11.30 °C 
06:00:0011.90 °C1011.50 hPa91.00 %10.50 °C 
05:45:0011.40 °C1011.60 hPa91.00 %10.00 °C 
05:30:0011.10 °C1011.40 hPa91.00 %9.70 °C 
05:15:0011.10 °C1011.40 hPa91.00 %9.70 °C 
05:00:0010.90 °C1011.30 hPa90.00 %9.30 °C 
04:45:0011.10 °C1011.50 hPa91.00 %9.70 °C 
04:30:0011.00 °C1011.60 hPa91.00 %9.60 °C 
04:15:0010.40 °C1011.40 hPa91.00 %9.00 °C 
04:00:009.90 °C1011.50 hPa90.00 %8.30 °C 
03:45:0010.00 °C1011.50 hPa90.00 %8.40 °C 
03:30:009.90 °C1011.40 hPa89.00 %8.20 °C 
03:15:009.80 °C1011.50 hPa89.00 %8.10 °C 
03:00:009.90 °C1011.60 hPa89.00 %8.20 °C 
02:45:0010.00 °C1011.70 hPa88.00 %8.10 °C 
02:30:0010.10 °C1011.70 hPa88.00 %8.20 °C 
02:15:0010.30 °C1011.70 hPa87.00 %8.20 °C 
02:00:0010.60 °C1011.90 hPa87.00 %8.50 °C 
01:45:0010.80 °C1011.90 hPa87.00 %8.70 °C 
01:30:0010.90 °C1011.80 hPa86.00 %8.70 °C 
01:15:0011.10 °C1012.10 hPa86.00 %8.80 °C 
01:00:0011.30 °C1011.90 hPa86.00 %9.00 °C 
00:45:0011.50 °C1012.00 hPa85.00 %9.10 °C 
00:30:0011.80 °C1012.10 hPa85.00 %9.40 °C 
00:15:0011.90 °C1012.00 hPa84.00 %9.30 °C 
00:00:0012.10 °C1012.00 hPa84.00 %9.50 °C 

Permanenter Link zu dieser Seite: Wetter im Erzgebirge am 30.06.2016
Performance-Info: Die Erstellung der Seite / Statistik(en) / Tabelle(n) erforderte 5 Datenbankserver-Abfrage(n) und dauerte 125 Millisekunden. (Dieser Messwert ist von der Gesamt-Auslastung des Servers abhängig.)
Erzgebirge - Wetter | Erzgebirge - Wetter (Mobilgeräte) | Komplette Klimadatenbank